Terminal Aerodrome Forecast
Issued by NWS Bismarck, ND

Home | Current Version | Previous Version | Text Only | Print | Product List | Glossary Off
Versions: 1 2 3 4 5 6 7 8 9 10 11 12 13 14 15

000
FTUS43 KBIS 271139
TAFISN
TAF
KISN 271139Z 2712/2812 13006KT P6SM VCTS SCT080CB BKN200
      TEMPO 2712/2716 -TSRA BKN080CB
     FM272000 15009KT P6SM FEW080 SCT200
     FM280600 12008KT P6SM VCTS SCT090CB BKN150=

USA.gov is the U.S. government's official web portal to all federal, state and local government web resources and services.